createdAt,value
2022-11-24T00:00:03.712Z,15.61
2022-11-24T00:00:14.699Z,15.62
2022-11-24T00:00:26.712Z,15.61
2022-11-24T00:00:37.783Z,15.61
2022-11-24T00:00:49.693Z,15.61
2022-11-24T00:01:01.710Z,15.61
2022-11-24T00:01:13.728Z,15.61
2022-11-24T00:01:25.739Z,15.61
2022-11-24T00:01:36.697Z,15.61
2022-11-24T00:01:47.830Z,15.62
2022-11-24T00:01:59.814Z,15.62
2022-11-24T00:02:10.873Z,15.62
2022-11-24T00:02:21.827Z,15.61
2022-11-24T00:02:32.843Z,15.61
2022-11-24T00:02:43.879Z,15.61
2022-11-24T00:02:55.880Z,15.62
2022-11-24T00:03:07.897Z,15.61
2022-11-24T00:03:19.866Z,15.61
2022-11-24T00:03:31.761Z,15.59
2022-11-24T00:03:43.822Z,15.62
2022-11-24T00:03:55.727Z,15.62
2022-11-24T00:04:06.790Z,15.59
2022-11-24T00:04:18.714Z,15.59
2022-11-24T00:04:29.711Z,15.62
2022-11-24T00:04:41.733Z,15.61
2022-11-24T00:04:52.693Z,15.62
2022-11-24T00:05:03.776Z,15.61
2022-11-24T00:05:14.727Z,15.61
2022-11-24T00:05:25.786Z,15.59
2022-11-24T00:05:37.721Z,15.61
2022-11-24T00:05:48.695Z,15.61
2022-11-24T00:06:00.713Z,15.59
2022-11-24T00:06:11.774Z,15.61
2022-11-24T00:06:22.743Z,15.59
2022-11-24T00:06:34.755Z,15.61
2022-11-24T00:06:45.713Z,15.61
2022-11-24T00:06:56.772Z,15.61
2022-11-24T00:07:07.794Z,15.59
2022-11-24T00:07:19.785Z,15.61
2022-11-24T00:07:31.761Z,15.62
2022-11-24T00:07:43.770Z,15.61
2022-11-24T00:07:54.759Z,15.61
2022-11-24T00:08:05.710Z,15.59
2022-11-24T00:08:17.715Z,15.61
2022-11-24T00:08:28.776Z,15.59
2022-11-24T00:08:40.712Z,15.62
2022-11-24T00:08:51.777Z,15.61
2022-11-24T00:09:02.719Z,15.61
2022-11-24T00:09:14.754Z,15.59
2022-11-24T00:09:25.694Z,15.59
2022-11-24T00:09:37.727Z,15.59
2022-11-24T00:09:49.743Z,15.61
2022-11-24T00:10:01.763Z,15.59
2022-11-24T00:10:12.699Z,15.61
2022-11-24T00:10:23.779Z,15.61
2022-11-24T00:10:34.720Z,15.61
2022-11-24T00:10:46.733Z,15.59
2022-11-24T00:10:58.765Z,15.58
2022-11-24T00:11:09.717Z,15.59
2022-11-24T00:11:20.721Z,15.59
2022-11-24T00:11:31.707Z,15.61
2022-11-24T00:11:43.728Z,15.61
2022-11-24T00:11:54.685Z,15.61
2022-11-24T00:12:05.741Z,15.59
2022-11-24T00:12:17.756Z,15.59
2022-11-24T00:12:28.696Z,15.59
2022-11-24T00:12:39.713Z,15.61
2022-11-24T00:12:50.695Z,15.61
2022-11-24T00:13:02.713Z,15.59
2022-11-24T00:13:14.731Z,15.61
2022-11-24T00:13:25.715Z,15.59
2022-11-24T00:13:36.707Z,15.61
2022-11-24T00:13:48.721Z,15.61
2022-11-24T00:13:59.687Z,15.61
2022-11-24T00:14:10.762Z,15.59
2022-11-24T00:14:21.727Z,15.61
2022-11-24T00:14:33.156Z,15.61
2022-11-24T00:14:44.738Z,15.61
2022-11-24T00:14:56.760Z,15.61
2022-11-24T00:15:07.726Z,15.59
2022-11-24T00:15:18.787Z,15.58
2022-11-24T00:15:30.705Z,15.61
2022-11-24T00:15:41.772Z,15.59
2022-11-24T00:15:53.779Z,15.59
2022-11-24T00:16:05.696Z,15.59
2022-11-24T00:16:16.783Z,15.58
2022-11-24T00:16:27.789Z,15.61
2022-11-24T00:16:38.805Z,15.59
2022-11-24T00:16:50.766Z,15.59
2022-11-24T00:17:01.782Z,15.61
2022-11-24T00:17:12.738Z,15.59
2022-11-24T00:17:23.703Z,15.59
2022-11-24T00:17:35.711Z,15.59
2022-11-24T00:17:46.691Z,15.59
2022-11-24T00:17:57.736Z,15.58
2022-11-24T00:18:09.741Z,15.58
2022-11-24T00:18:21.738Z,15.58
2022-11-24T00:18:33.763Z,15.61
2022-11-24T00:18:44.726Z,15.59
2022-11-24T00:18:56.746Z,15.59
2022-11-24T00:19:08.745Z,15.59
2022-11-24T00:19:20.754Z,15.59
2022-11-24T00:19:32.772Z,15.59
2022-11-24T00:19:43.735Z,15.61
2022-11-24T00:19:55.753Z,15.59
2022-11-24T00:20:06.714Z,15.59
2022-11-24T00:20:17.776Z,15.59
2022-11-24T00:20:29.778Z,15.59
2022-11-24T00:20:41.779Z,15.59
2022-11-24T00:20:52.743Z,15.58
2022-11-24T00:21:03.707Z,15.59
2022-11-24T00:21:15.713Z,15.59
2022-11-24T00:21:26.729Z,15.59
2022-11-24T00:21:38.746Z,15.61
2022-11-24T00:21:49.698Z,15.59
2022-11-24T00:22:01.713Z,15.58
2022-11-24T00:22:12.786Z,15.59
2022-11-24T00:22:24.693Z,15.59
2022-11-24T00:22:35.765Z,15.59
2022-11-24T00:22:47.771Z,15.59
2022-11-24T00:22:58.739Z,15.61
2022-11-24T00:23:09.692Z,15.59
2022-11-24T00:23:20.772Z,15.59
2022-11-24T00:23:31.732Z,15.58
2022-11-24T00:23:42.729Z,15.58
2022-11-24T00:23:53.784Z,15.58
2022-11-24T00:24:05.695Z,15.59
2022-11-24T00:24:16.735Z,15.58
2022-11-24T00:24:28.750Z,15.59
2022-11-24T00:24:40.753Z,15.58
2022-11-24T00:24:52.768Z,15.59
2022-11-24T00:25:04.778Z,15.58
2022-11-24T00:25:16.779Z,15.58
2022-11-24T00:25:27.737Z,15.59
2022-11-24T00:25:38.713Z,15.58
2022-11-24T00:25:49.782Z,15.59
2022-11-24T00:26:01.701Z,15.58
2022-11-24T00:26:12.765Z,15.58
2022-11-24T00:26:24.782Z,15.59
2022-11-24T00:26:35.742Z,15.59
2022-11-24T00:26:46.707Z,15.57
2022-11-24T00:26:58.725Z,15.59
2022-11-24T00:27:09.692Z,15.58
2022-11-24T00:27:20.770Z,15.58
2022-11-24T00:27:31.739Z,15.58
2022-11-24T00:27:42.725Z,15.59
2022-11-24T00:27:53.685Z,15.58
2022-11-24T00:28:04.724Z,15.58
2022-11-24T00:28:15.777Z,15.58
2022-11-24T00:28:27.908Z,15.59
2022-11-24T00:28:38.757Z,15.59
2022-11-24T00:28:50.770Z,15.58
2022-11-24T00:29:01.732Z,15.58
2022-11-24T00:29:12.712Z,15.58
2022-11-24T00:29:23.778Z,15.58
2022-11-24T00:29:35.720Z,15.58
2022-11-24T00:29:46.695Z,15.58
2022-11-24T00:29:57.773Z,15.59
2022-11-24T00:30:09.671Z,15.59
2022-11-24T00:30:20.734Z,15.58
2022-11-24T00:30:31.723Z,15.58
2022-11-24T00:30:42.927Z,15.58
2022-11-24T00:30:53.782Z,15.58
2022-11-24T00:31:05.914Z,15.59
2022-11-24T00:31:18.032Z,15.58
2022-11-24T00:31:28.869Z,15.58
2022-11-24T00:31:40.732Z,15.58
2022-11-24T00:31:52.734Z,15.58
2022-11-24T00:32:04.755Z,15.59
2022-11-24T00:32:16.755Z,15.58
2022-11-24T00:32:28.769Z,15.59
2022-11-24T00:32:40.793Z,15.57
2022-11-24T00:32:52.694Z,15.58
2022-11-24T00:33:03.735Z,15.58
2022-11-24T00:33:15.734Z,15.57
2022-11-24T00:33:27.764Z,15.58
2022-11-24T00:33:40.730Z,15.57
2022-11-24T00:33:51.717Z,15.57
2022-11-24T00:34:02.774Z,15.57
2022-11-24T00:34:14.788Z,15.58
2022-11-24T00:34:26.710Z,15.58
2022-11-24T00:34:38.729Z,15.58
2022-11-24T00:34:49.692Z,15.58
2022-11-24T00:35:01.720Z,15.57
2022-11-24T00:35:12.779Z,15.58
2022-11-24T00:35:24.695Z,15.58
2022-11-24T00:35:35.736Z,15.58
2022-11-24T00:35:47.731Z,15.58
2022-11-24T00:35:58.726Z,15.59
2022-11-24T00:36:10.738Z,15.59
2022-11-24T00:36:22.758Z,15.58
2022-11-24T00:36:33.714Z,15.58
2022-11-24T00:36:44.783Z,15.58
2022-11-24T00:36:56.702Z,15.57
2022-11-24T00:37:07.746Z,15.58
2022-11-24T00:37:18.715Z,15.57
2022-11-24T00:37:30.727Z,15.57
2022-11-24T00:37:41.789Z,15.57
2022-11-24T00:37:53.697Z,15.58
2022-11-24T00:38:04.738Z,15.57
2022-11-24T00:38:15.741Z,15.57
2022-11-24T00:38:27.727Z,15.58
2022-11-24T00:38:38.716Z,15.58
2022-11-24T00:38:50.712Z,15.57
2022-11-24T00:39:02.721Z,15.57
2022-11-24T00:39:13.699Z,15.58
2022-11-24T00:39:24.775Z,15.58
2022-11-24T00:39:35.728Z,15.58
2022-11-24T00:39:47.734Z,15.58
2022-11-24T00:39:59.753Z,15.58
2022-11-24T00:40:10.714Z,15.58
2022-11-24T00:40:21.711Z,15.58
2022-11-24T00:40:35.086Z,15.57
2022-11-24T00:40:43.740Z,15.57
2022-11-24T00:40:55.757Z,15.57
2022-11-24T00:41:07.776Z,15.57
2022-11-24T00:41:18.742Z,15.58
2022-11-24T00:41:30.754Z,15.57
2022-11-24T00:41:42.767Z,15.57
2022-11-24T00:41:54.783Z,15.55
2022-11-24T00:42:06.696Z,15.58
2022-11-24T00:42:17.734Z,15.57
2022-11-24T00:42:28.699Z,15.57
2022-11-24T00:42:40.716Z,15.57
2022-11-24T00:42:51.718Z,15.57
2022-11-24T00:43:03.726Z,15.57
2022-11-24T00:43:14.719Z,15.57
2022-11-24T00:43:25.710Z,15.58
2022-11-24T00:43:36.695Z,15.57
2022-11-24T00:43:47.691Z,15.57
2022-11-24T00:43:58.703Z,15.57
2022-11-24T00:44:09.765Z,15.58
2022-11-24T00:44:20.709Z,15.57
2022-11-24T00:44:32.977Z,15.55
2022-11-24T00:44:43.739Z,15.57
2022-11-24T00:44:54.702Z,15.58
2022-11-24T00:45:13.498Z,15.57
2022-11-24T00:45:18.712Z,15.58
2022-11-24T00:45:28.729Z,15.57
2022-11-24T00:45:40.799Z,15.55
2022-11-24T00:45:51.829Z,15.57
2022-11-24T00:46:02.869Z,15.57
2022-11-24T00:46:13.854Z,15.57
2022-11-24T00:46:25.827Z,15.57
2022-11-24T00:46:37.893Z,15.57
2022-11-24T00:46:48.950Z,15.55
2022-11-24T00:46:59.816Z,15.57
2022-11-24T00:47:10.967Z,15.57
2022-11-24T00:47:21.809Z,15.55
2022-11-24T00:47:32.732Z,15.58
2022-11-24T00:47:43.694Z,15.57
2022-11-24T00:47:54.777Z,15.58
2022-11-24T00:48:05.733Z,15.55
2022-11-24T00:48:16.699Z,15.57
2022-11-24T00:48:27.768Z,15.58
2022-11-24T00:48:39.851Z,15.57
2022-11-24T00:48:50.712Z,15.57
2022-11-24T00:49:02.716Z,15.55
2022-11-24T00:49:13.702Z,15.55
2022-11-24T00:49:25.701Z,15.57
2022-11-24T00:49:37.719Z,15.57
2022-11-24T00:49:48.694Z,15.57
2022-11-24T00:50:00.714Z,15.57
2022-11-24T00:50:11.691Z,15.55
2022-11-24T00:50:22.761Z,15.57
2022-11-24T00:50:33.743Z,15.57
2022-11-24T00:50:44.696Z,15.57
2022-11-24T00:50:55.739Z,15.55
2022-11-24T00:51:07.761Z,15.55
2022-11-24T00:51:18.725Z,15.57
2022-11-24T00:51:30.744Z,15.55
2022-11-24T00:51:42.757Z,15.57
2022-11-24T00:51:54.772Z,15.55
2022-11-24T00:52:06.775Z,15.57
2022-11-24T00:52:18.711Z,15.55
2022-11-24T00:52:30.729Z,15.55
2022-11-24T00:52:42.738Z,15.57
2022-11-24T00:52:54.733Z,15.55
2022-11-24T00:53:05.736Z,15.55
2022-11-24T00:53:16.710Z,15.55
2022-11-24T00:53:28.728Z,15.55
2022-11-24T00:53:40.335Z,15.55
2022-11-24T00:53:51.692Z,15.55
2022-11-24T00:54:02.743Z,15.55
2022-11-24T00:54:13.711Z,15.57
2022-11-24T00:54:25.722Z,15.55
2022-11-24T00:54:37.732Z,15.57
2022-11-24T00:54:48.697Z,15.55
2022-11-24T00:54:59.773Z,15.57
2022-11-24T00:55:11.781Z,15.55
2022-11-24T00:55:23.701Z,15.57
2022-11-24T00:55:35.716Z,15.55
2022-11-24T00:55:46.697Z,15.55
2022-11-24T00:55:57.776Z,15.57
2022-11-24T00:56:09.774Z,15.57
2022-11-24T00:56:21.784Z,15.55
2022-11-24T00:56:32.744Z,15.55
2022-11-24T00:56:43.716Z,15.58
2022-11-24T00:56:54.702Z,15.57
2022-11-24T00:57:06.731Z,15.57
2022-11-24T00:57:17.774Z,15.55
2022-11-24T00:57:29.763Z,15.57
2022-11-24T00:57:41.718Z,15.57
2022-11-24T00:57:52.688Z,15.55
2022-11-24T00:58:04.716Z,15.55
2022-11-24T00:58:15.689Z,15.57
2022-11-24T00:58:26.748Z,15.55
2022-11-24T00:58:38.794Z,15.57
2022-11-24T00:58:49.744Z,15.57
2022-11-24T00:59:01.757Z,15.57
2022-11-24T00:59:12.718Z,15.57
2022-11-24T00:59:23.697Z,15.57
2022-11-24T00:59:34.712Z,15.57
2022-11-24T00:59:46.724Z,15.57
2022-11-24T00:59:58.732Z,15.55
2022-11-24T01:00:10.741Z,15.55
2022-11-24T01:00:22.760Z,15.55
2022-11-24T01:00:33.720Z,15.55
2022-11-24T01:00:44.684Z,15.55
2022-11-24T01:00:55.745Z,15.57
2022-11-24T01:01:06.747Z,15.57
2022-11-24T01:01:17.770Z,15.57
2022-11-24T01:01:29.804Z,15.57
2022-11-24T01:01:41.820Z,15.55
2022-11-24T01:01:52.848Z,15.55
2022-11-24T01:02:04.721Z,15.57
2022-11-24T01:02:15.735Z,15.57
2022-11-24T01:02:26.820Z,15.57
2022-11-24T01:02:37.758Z,15.57
2022-11-24T01:02:48.810Z,15.57
2022-11-24T01:03:00.910Z,15.57
2022-11-24T01:03:12.737Z,15.57
2022-11-24T01:03:24.762Z,15.55
2022-11-24T01:03:35.713Z,15.55
2022-11-24T01:03:46.723Z,15.55
2022-11-24T01:03:57.697Z,15.57
2022-11-24T01:04:08.760Z,15.58
2022-11-24T01:04:20.756Z,15.57
2022-11-24T01:04:32.175Z,15.55
2022-11-24T01:04:42.715Z,15.55
2022-11-24T01:04:53.718Z,15.55
2022-11-24T01:05:04.714Z,15.57
2022-11-24T01:05:15.712Z,15.57
2022-11-24T01:05:26.719Z,15.57
2022-11-24T01:05:37.699Z,15.55
2022-11-24T01:05:49.718Z,15.57
2022-11-24T01:06:01.733Z,15.55
2022-11-24T01:06:13.732Z,15.57
2022-11-24T01:06:25.757Z,15.57
2022-11-24T01:06:36.719Z,15.55
2022-11-24T01:06:47.775Z,15.55
2022-11-24T01:06:59.689Z,15.57
2022-11-24T01:07:10.793Z,15.57
2022-11-24T01:07:22.801Z,15.55
2022-11-24T01:07:34.799Z,15.57
2022-11-24T01:07:46.825Z,15.58
2022-11-24T01:07:57.710Z,15.57
2022-11-24T01:08:09.731Z,15.57
2022-11-24T01:08:20.697Z,15.54
2022-11-24T01:08:31.762Z,15.55
2022-11-24T01:08:43.776Z,15.57
2022-11-24T01:08:55.719Z,15.55
2022-11-24T01:09:06.695Z,15.55
2022-11-24T01:09:17.775Z,15.55
2022-11-24T01:09:28.732Z,15.55
2022-11-24T01:09:39.702Z,15.57
2022-11-24T01:09:51.719Z,15.55
2022-11-24T01:10:02.779Z,15.57
2022-11-24T01:10:14.780Z,15.55
2022-11-24T01:10:26.756Z,15.55
2022-11-24T01:10:38.780Z,15.55
2022-11-24T01:10:49.738Z,15.54
2022-11-24T01:11:01.749Z,15.55
2022-11-24T01:11:12.725Z,15.55
2022-11-24T01:11:23.691Z,15.54
2022-11-24T01:11:34.750Z,15.55
2022-11-24T01:11:46.757Z,15.54
2022-11-24T01:11:57.719Z,15.54
2022-11-24T01:12:09.736Z,15.55
2022-11-24T01:12:21.755Z,15.55
2022-11-24T01:12:32.727Z,15.54
2022-11-24T01:12:43.698Z,15.55
2022-11-24T01:12:54.711Z,15.54
2022-11-24T01:13:05.711Z,15.55
2022-11-24T01:13:16.691Z,15.57
2022-11-24T01:13:27.751Z,15.55
2022-11-24T01:13:40.744Z,15.54
2022-11-24T01:13:51.715Z,15.57
2022-11-24T01:14:02.714Z,15.55
2022-11-24T01:14:13.716Z,15.55
2022-11-24T01:14:24.712Z,15.54
2022-11-24T01:14:36.286Z,15.55
2022-11-24T01:14:47.693Z,15.55
2022-11-24T01:14:58.740Z,15.57
2022-11-24T01:15:09.719Z,15.55
2022-11-24T01:15:20.717Z,15.55
2022-11-24T01:15:31.728Z,15.55
2022-11-24T01:15:42.839Z,15.57
2022-11-24T01:15:54.796Z,15.57
2022-11-24T01:16:06.797Z,15.55
2022-11-24T01:16:18.907Z,15.55
2022-11-24T01:16:30.752Z,15.55
2022-11-24T01:16:42.757Z,15.54
2022-11-24T01:16:54.775Z,15.55
2022-11-24T01:17:06.780Z,15.55
2022-11-24T01:17:17.737Z,15.57
2022-11-24T01:17:29.748Z,15.55
2022-11-24T01:17:41.755Z,15.55
2022-11-24T01:17:53.771Z,15.55
2022-11-24T01:18:05.781Z,15.55
2022-11-24T01:18:17.736Z,15.55
2022-11-24T01:18:28.698Z,15.54
2022-11-24T01:18:40.738Z,15.55
2022-11-24T01:18:51.690Z,15.55
2022-11-24T01:19:02.742Z,15.55
2022-11-24T01:19:13.707Z,15.55
2022-11-24T01:19:25.721Z,15.55
2022-11-24T01:19:36.708Z,15.55
2022-11-24T01:19:48.717Z,15.55
2022-11-24T01:19:59.709Z,15.57
2022-11-24T01:20:11.711Z,15.55
2022-11-24T01:20:22.772Z,15.55
2022-11-24T01:20:34.776Z,15.55
2022-11-24T01:20:45.738Z,15.55
2022-11-24T01:20:56.698Z,15.55
2022-11-24T01:21:10.249Z,15.55
2022-11-24T01:21:18.759Z,15.55
2022-11-24T01:21:29.683Z,15.55
2022-11-24T01:21:40.746Z,15.55
2022-11-24T01:21:51.713Z,15.55
2022-11-24T01:22:02.777Z,15.55
2022-11-24T01:22:14.782Z,15.55
2022-11-24T01:22:26.705Z,15.54
2022-11-24T01:22:37.742Z,15.55
2022-11-24T01:22:48.735Z,15.54
2022-11-24T01:23:00.749Z,15.57
2022-11-24T01:23:11.696Z,15.55
2022-11-24T01:23:22.711Z,15.55
2022-11-24T01:23:33.691Z,15.55
2022-11-24T01:23:45.720Z,15.54
2022-11-24T01:23:56.698Z,15.54
2022-11-24T01:24:07.782Z,15.54
2022-11-24T01:24:19.694Z,15.55
2022-11-24T01:24:30.828Z,15.55
2022-11-24T01:24:42.743Z,15.55
2022-11-24T01:24:53.728Z,15.57
2022-11-24T01:25:04.713Z,15.55
2022-11-24T01:25:15.770Z,15.54
2022-11-24T01:25:26.731Z,15.57
2022-11-24T01:25:38.736Z,15.55
2022-11-24T01:25:49.704Z,15.55
2022-11-24T01:26:00.762Z,15.55
2022-11-24T01:26:11.737Z,15.57
2022-11-24T01:26:22.685Z,15.55
2022-11-24T01:26:33.758Z,15.54
2022-11-24T01:26:45.775Z,15.55
2022-11-24T01:26:57.712Z,15.55
2022-11-24T01:27:08.789Z,15.55
2022-11-24T01:27:20.701Z,15.54
2022-11-24T01:27:31.694Z,15.55
2022-11-24T01:27:42.765Z,15.55
2022-11-24T01:27:53.726Z,15.55
2022-11-24T01:28:05.738Z,15.55
2022-11-24T01:28:17.745Z,15.54
2022-11-24T01:28:29.764Z,15.54
2022-11-24T01:28:46.677Z,15.54
2022-11-24T01:28:54.744Z,15.55
2022-11-24T01:29:04.736Z,15.54
2022-11-24T01:29:15.701Z,15.55
2022-11-24T01:29:27.709Z,15.55
2022-11-24T01:29:38.703Z,15.55
2022-11-24T01:29:50.713Z,15.54
2022-11-24T01:30:01.709Z,15.55
2022-11-24T01:30:13.727Z,15.57
2022-11-24T01:30:24.793Z,15.55
2022-11-24T01:30:35.823Z,15.54
2022-11-24T01:30:47.773Z,15.54
2022-11-24T01:30:59.795Z,15.55
2022-11-24T01:31:11.817Z,15.54
2022-11-24T01:31:22.770Z,15.55
2022-11-24T01:31:33.730Z,15.54
2022-11-24T01:31:45.732Z,15.55
2022-11-24T01:31:57.753Z,15.55
2022-11-24T01:32:08.714Z,15.55
2022-11-24T01:32:19.774Z,15.55
2022-11-24T01:32:30.732Z,15.54
2022-11-24T01:32:41.690Z,15.54
2022-11-24T01:32:52.759Z,15.54
2022-11-24T01:33:04.775Z,15.54
2022-11-24T01:33:16.677Z,15.54
2022-11-24T01:33:27.752Z,15.52
2022-11-24T01:33:40.742Z,15.54
2022-11-24T01:33:51.715Z,15.54
2022-11-24T01:34:03.729Z,15.54
2022-11-24T01:34:15.736Z,15.54
2022-11-24T01:34:26.703Z,15.54
2022-11-24T01:34:37.790Z,15.54
2022-11-24T01:34:48.744Z,15.54
2022-11-24T01:35:00.757Z,15.54
2022-11-24T01:35:11.720Z,15.54
2022-11-24T01:35:23.718Z,15.54
2022-11-24T01:35:35.737Z,15.54
2022-11-24T01:35:46.703Z,15.54
2022-11-24T01:35:58.732Z,15.54
2022-11-24T01:36:09.675Z,15.54
2022-11-24T01:36:20.804Z,15.54
2022-11-24T01:36:31.740Z,15.55
2022-11-24T01:36:42.705Z,15.55
2022-11-24T01:36:53.760Z,15.52
2022-11-24T01:37:05.774Z,15.54
2022-11-24T01:37:16.737Z,15.54
2022-11-24T01:37:27.713Z,15.54
2022-11-24T01:37:38.758Z,15.54
2022-11-24T01:37:49.748Z,15.55
2022-11-24T01:38:01.766Z,15.54
2022-11-24T01:38:13.778Z,15.55
2022-11-24T01:38:25.697Z,15.52
2022-11-24T01:38:36.749Z,15.55
2022-11-24T01:38:47.728Z,15.55
2022-11-24T01:38:58.697Z,15.54
2022-11-24T01:39:10.725Z,15.54
2022-11-24T01:39:21.753Z,15.54
2022-11-24T01:39:32.716Z,15.54
2022-11-24T01:39:43.690Z,15.55
2022-11-24T01:39:54.744Z,15.54
2022-11-24T01:40:05.718Z,15.54
2022-11-24T01:40:16.723Z,15.55
2022-11-24T01:40:28.732Z,15.55
2022-11-24T01:40:39.692Z,15.55
2022-11-24T01:40:50.765Z,15.54
2022-11-24T01:41:01.716Z,15.55
2022-11-24T01:41:12.717Z,15.55
2022-11-24T01:41:24.718Z,15.54
2022-11-24T01:41:35.701Z,15.55
2022-11-24T01:41:46.761Z,15.54
2022-11-24T01:41:57.736Z,15.54
2022-11-24T01:42:08.697Z,15.54
2022-11-24T01:42:19.753Z,15.54
2022-11-24T01:42:31.774Z,15.54
2022-11-24T01:42:42.733Z,15.54
2022-11-24T01:42:53.692Z,15.54
2022-11-24T01:43:05.724Z,15.52
2022-11-24T01:43:17.756Z,15.54
2022-11-24T01:43:28.695Z,15.54
2022-11-24T01:43:40.744Z,15.54
2022-11-24T01:43:50.745Z,15.54
2022-11-24T01:44:01.690Z,15.54
2022-11-24T01:44:13.708Z,15.54
2022-11-24T01:44:24.781Z,15.54
2022-11-24T01:44:36.942Z,15.54
2022-11-24T01:44:47.772Z,15.55
2022-11-24T01:44:59.772Z,15.54
2022-11-24T01:45:11.721Z,15.55
2022-11-24T01:45:22.779Z,15.54
2022-11-24T01:45:34.727Z,15.55
2022-11-24T01:45:45.820Z,15.54
2022-11-24T01:45:57.789Z,15.55
2022-11-24T01:46:09.751Z,15.52
2022-11-24T01:46:20.828Z,15.54
2022-11-24T01:46:31.731Z,15.54
2022-11-24T01:46:42.692Z,15.54
2022-11-24T01:46:53.765Z,15.54
2022-11-24T01:47:05.775Z,15.54
2022-11-24T01:47:16.735Z,15.52
2022-11-24T01:47:27.697Z,15.54
2022-11-24T01:47:38.758Z,15.54
2022-11-24T01:47:49.735Z,15.55
2022-11-24T01:48:01.744Z,15.54
2022-11-24T01:48:12.701Z,15.54
2022-11-24T01:48:27.279Z,15.54
2022-11-24T01:48:35.740Z,15.52
2022-11-24T01:48:47.757Z,15.54
2022-11-24T01:48:58.719Z,15.52
2022-11-24T01:49:10.737Z,15.55
2022-11-24T01:49:21.699Z,15.54
2022-11-24T01:49:33.714Z,15.54
2022-11-24T01:49:45.733Z,15.54
2022-11-24T01:49:57.758Z,15.52
2022-11-24T01:50:08.718Z,15.54
2022-11-24T01:50:19.778Z,15.54
2022-11-24T01:50:31.785Z,15.54
2022-11-24T01:50:43.720Z,15.52
2022-11-24T01:50:54.781Z,15.54
2022-11-24T01:51:06.722Z,15.54
2022-11-24T01:51:18.738Z,15.52
2022-11-24T01:51:29.717Z,15.52
2022-11-24T01:51:40.694Z,15.54
2022-11-24T01:51:51.756Z,15.52
2022-11-24T01:52:02.725Z,15.54
2022-11-24T01:52:13.698Z,15.55
2022-11-24T01:52:24.701Z,15.52
2022-11-24T01:52:36.713Z,15.52
2022-11-24T01:52:47.688Z,15.52
2022-11-24T01:52:58.769Z,15.52
2022-11-24T01:53:09.728Z,15.54
2022-11-24T01:53:21.726Z,15.54
2022-11-24T01:53:32.708Z,15.54
2022-11-24T01:53:44.727Z,15.54
2022-11-24T01:53:55.695Z,15.52
2022-11-24T01:54:06.790Z,15.54
2022-11-24T01:54:17.727Z,15.52
2022-11-24T01:54:29.740Z,15.52
2022-11-24T01:54:40.717Z,15.52
2022-11-24T01:54:51.697Z,15.52
2022-11-24T01:55:02.739Z,15.52
2022-11-24T01:55:14.755Z,15.54
2022-11-24T01:55:25.716Z,15.52
2022-11-24T01:55:36.691Z,15.52
2022-11-24T01:55:47.747Z,15.54
2022-11-24T01:55:59.766Z,15.52
2022-11-24T01:56:11.780Z,15.52
2022-11-24T01:56:22.742Z,15.52
2022-11-24T01:56:33.717Z,15.52
2022-11-24T01:56:44.710Z,15.52
2022-11-24T01:56:55.764Z,15.52
2022-11-24T01:57:07.779Z,15.54
2022-11-24T01:57:19.692Z,15.54
2022-11-24T01:57:30.761Z,15.52
2022-11-24T01:57:42.695Z,15.52
2022-11-24T01:57:53.755Z,15.52
2022-11-24T01:58:04.715Z,15.54
2022-11-24T01:58:15.719Z,15.54
2022-11-24T01:58:26.780Z,15.54
2022-11-24T01:58:38.691Z,15.52
2022-11-24T01:58:49.732Z,15.54
2022-11-24T01:59:00.696Z,15.52
2022-11-24T01:59:11.758Z,15.52
2022-11-24T01:59:23.756Z,15.52
2022-11-24T01:59:35.764Z,15.54
2022-11-24T01:59:47.776Z,15.54
2022-11-24T01:59:59.692Z,15.54
2022-11-24T02:00:10.739Z,15.54
2022-11-24T02:00:22.755Z,15.52
2022-11-24T02:00:33.724Z,15.52
2022-11-24T02:00:45.735Z,15.54
2022-11-24T02:00:57.740Z,15.52
2022-11-24T02:01:08.776Z,15.52
2022-11-24T02:01:19.856Z,15.52
2022-11-24T02:01:31.762Z,15.52
2022-11-24T02:01:42.759Z,15.52
2022-11-24T02:01:54.788Z,15.51
2022-11-24T02:02:06.770Z,15.52
2022-11-24T02:02:17.766Z,15.52
2022-11-24T02:02:28.807Z,15.54
2022-11-24T02:02:39.779Z,15.52
2022-11-24T02:02:50.872Z,15.54
2022-11-24T02:03:02.784Z,15.52
2022-11-24T02:03:14.734Z,15.52
2022-11-24T02:03:25.699Z,15.52
2022-11-24T02:03:36.778Z,15.52
2022-11-24T02:03:48.716Z,15.52
2022-11-24T02:03:59.719Z,15.52
2022-11-24T02:04:10.707Z,15.52
2022-11-24T02:04:22.716Z,15.54
2022-11-24T02:04:34.176Z,15.54
2022-11-24T02:04:44.752Z,15.52
2022-11-24T02:04:56.771Z,15.51
2022-11-24T02:05:08.788Z,15.52
2022-11-24T02:05:20.711Z,15.51
2022-11-24T02:05:31.761Z,15.52
2022-11-24T02:05:43.776Z,15.52
2022-11-24T02:05:54.734Z,15.52
2022-11-24T02:06:05.696Z,15.51
2022-11-24T02:06:16.765Z,15.52
2022-11-24T02:06:27.739Z,15.52
2022-11-24T02:06:38.696Z,15.52
2022-11-24T02:06:49.757Z,15.52
2022-11-24T02:07:00.727Z,15.52
2022-11-24T02:07:11.817Z,15.52
2022-11-24T02:07:23.783Z,15.51
2022-11-24T02:07:35.764Z,15.52
2022-11-24T02:07:46.738Z,15.51
2022-11-24T02:07:57.730Z,15.52
2022-11-24T02:08:08.691Z,15.52
2022-11-24T02:08:19.753Z,15.52
2022-11-24T02:08:30.709Z,15.52
2022-11-24T02:08:41.773Z,15.52
2022-11-24T02:08:52.737Z,15.51
2022-11-24T02:09:04.754Z,15.52
2022-11-24T02:09:15.720Z,15.51
2022-11-24T02:09:26.781Z,15.51
2022-11-24T02:09:38.695Z,15.51
2022-11-24T02:09:49.744Z,15.52
2022-11-24T02:10:01.757Z,15.51
2022-11-24T02:10:12.719Z,15.51
2022-11-24T02:10:23.691Z,15.52
2022-11-24T02:10:34.736Z,15.51
2022-11-24T02:10:46.742Z,15.52
2022-11-24T02:10:58.743Z,15.52
2022-11-24T02:11:10.770Z,15.52
2022-11-24T02:11:22.711Z,15.51
2022-11-24T02:11:33.707Z,15.51
2022-11-24T02:11:44.784Z,15.52
2022-11-24T02:11:56.691Z,15.52
2022-11-24T02:12:07.741Z,15.49
2022-11-24T02:12:19.761Z,15.51
2022-11-24T02:12:30.718Z,15.51
2022-11-24T02:12:41.696Z,15.52
2022-11-24T02:12:52.747Z,15.52
2022-11-24T02:13:04.762Z,15.52
2022-11-24T02:13:16.777Z,15.52
2022-11-24T02:13:27.738Z,15.51
2022-11-24T02:13:40.749Z,15.52
2022-11-24T02:13:51.704Z,15.52
2022-11-24T02:14:03.719Z,15.52
2022-11-24T02:14:15.739Z,15.52
2022-11-24T02:14:27.743Z,15.52
2022-11-24T02:14:39.750Z,15.52
2022-11-24T02:14:51.767Z,15.52
2022-11-24T02:15:03.777Z,15.52
2022-11-24T02:15:14.736Z,15.52
2022-11-24T02:15:25.700Z,15.52
2022-11-24T02:15:36.777Z,15.52
2022-11-24T02:15:47.752Z,15.52
2022-11-24T02:15:58.782Z,15.52
2022-11-24T02:16:09.772Z,15.52
2022-11-24T02:16:20.768Z,15.52
2022-11-24T02:16:32.718Z,15.52
2022-11-24T02:16:43.695Z,15.51
2022-11-24T02:16:55.690Z,15.51
2022-11-24T02:17:06.775Z,15.52
2022-11-24T02:17:18.779Z,15.54
2022-11-24T02:17:29.748Z,15.51
2022-11-24T02:17:41.762Z,15.54
2022-11-24T02:17:53.777Z,15.52
2022-11-24T02:18:05.698Z,15.52
2022-11-24T02:18:17.709Z,15.52
2022-11-24T02:18:29.724Z,15.54
2022-11-24T02:18:41.736Z,15.52
2022-11-24T02:18:52.706Z,15.52
2022-11-24T02:19:03.756Z,15.51
2022-11-24T02:19:14.716Z,15.52
2022-11-24T02:19:25.776Z,15.52
2022-11-24T02:19:37.760Z,15.52
2022-11-24T02:19:48.744Z,15.51
2022-11-24T02:20:00.760Z,15.54
2022-11-24T02:20:12.702Z,15.51
2022-11-24T02:20:24.720Z,15.52
2022-11-24T02:20:35.691Z,15.52
2022-11-24T02:20:47.707Z,15.52
2022-11-24T02:20:58.776Z,15.52
2022-11-24T02:21:10.715Z,15.51
2022-11-24T02:21:22.752Z,15.51
2022-11-24T02:21:34.766Z,15.51
2022-11-24T02:21:46.771Z,15.51
2022-11-24T02:21:57.736Z,15.52
2022-11-24T02:22:09.753Z,15.52
2022-11-24T02:22:21.763Z,15.51
2022-11-24T02:22:33.776Z,15.51
2022-11-24T02:22:44.737Z,15.52
2022-11-24T02:22:56.734Z,15.51
2022-11-24T02:23:08.748Z,15.51
2022-11-24T02:23:20.748Z,15.52
2022-11-24T02:23:32.763Z,15.52
2022-11-24T02:23:44.776Z,15.51
2022-11-24T02:23:55.733Z,15.51
2022-11-24T02:24:06.696Z,15.51
2022-11-24T02:24:17.750Z,15.51
2022-11-24T02:24:28.722Z,15.52
2022-11-24T02:24:40.739Z,15.52
2022-11-24T02:24:51.699Z,15.52
2022-11-24T02:25:02.748Z,15.52
2022-11-24T02:25:14.762Z,15.52
2022-11-24T02:25:25.722Z,15.51
2022-11-24T02:25:36.688Z,15.52
2022-11-24T02:25:47.756Z,15.51
2022-11-24T02:25:59.759Z,15.52
2022-11-24T02:26:11.750Z,15.52
2022-11-24T02:26:23.780Z,15.51
2022-11-24T02:26:35.695Z,15.51
2022-11-24T02:26:46.763Z,15.51
2022-11-24T02:26:58.772Z,15.52
2022-11-24T02:27:10.792Z,15.51